Time;durP1;ratioP1;P1;durP2;ratioP2;P2;SDS_P1;SDS_P2;PMS_P1;PMS_P2;Temp;Humidity;BMP_temperature;BMP_pressure;BME280_temperature;BME280_humidity;BME280_pressure;Samples;Min_cycle;Max_cycle;Signal;HPM_P1;HPM_P2
2022/06/18 00:00:48;;;;;;;4.05;2.75;;;;;;;21.94;58.90;101641.91;5032064;28;20025;-90
2022/06/18 00:03:13;;;;;;;4.53;2.70;;;;;;;21.88;58.59;101638.53;5034392;28;20021;-92
2022/06/18 00:05:41;;;;;;;4.88;2.60;;;;;;;21.88;59.25;101652.16;5034676;28;20032;-92
2022/06/18 00:08:14;;;;;;;9.33;2.47;;;;;;;21.86;58.82;101648.13;5032604;28;20100;-91
2022/06/18 00:10:39;;;;;;;3.53;2.30;;;;;;;21.76;59.51;101654.66;5031660;28;20041;-92
2022/06/18 00:13:42;;;;;;;4.35;2.60;;;;;;;21.70;59.32;101639.56;5014936;28;20026;-92
2022/06/18 00:16:13;;;;;;;5.80;2.28;;;;;;;21.67;60.01;101640.97;5031900;28;20373;-91
2022/06/18 00:18:39;;;;;;;5.50;2.78;;;;;;;21.56;60.82;101634.97;5031640;28;20081;-91
2022/06/18 00:21:07;;;;;;;4.63;2.50;;;;;;;21.48;61.66;101624.84;5032028;28;20452;-91
2022/06/18 00:23:33;;;;;;;4.45;2.85;;;;;;;21.46;60.87;101635.25;5032989;28;20033;-91
2022/06/18 00:25:58;;;;;;;4.43;2.60;;;;;;;21.40;62.01;101625.56;5014487;28;20080;-91
2022/06/18 00:28:26;;;;;;;6.17;2.90;;;;;;;21.38;61.50;101627.81;5032501;28;20083;-92
2022/06/18 00:30:53;;;;;;;8.00;2.90;;;;;;;21.31;62.15;101629.06;5031757;28;20037;-91
2022/06/18 00:33:20;;;;;;;5.32;2.83;;;;;;;21.30;62.54;101626.66;5031933;28;20041;-91
2022/06/18 00:35:47;;;;;;;6.38;2.80;;;;;;;21.31;62.04;101634.53;5032126;28;20075;-91
2022/06/18 00:38:29;;;;;;;3.53;2.77;;;;;;;21.23;61.56;101631.75;5031689;28;20529;-91
2022/06/18 00:40:55;;;;;;;5.27;2.30;;;;;;;21.18;62.28;101635.41;5031759;28;20296;-92
2022/06/18 00:43:33;;;;;;;4.70;2.70;;;;;;;21.08;62.31;101624.75;5032022;28;20025;-92
2022/06/18 00:46:13;;;;;;;5.28;2.92;;;;;;;21.07;62.69;101623.13;5031880;28;20033;-91
2022/06/18 00:49:09;;;;;;;6.35;2.90;;;;;;;20.99;62.14;101622.78;5029618;28;20124;-92
2022/06/18 00:51:41;;;;;;;5.40;3.05;;;;;;;21.02;63.42;101629.53;5031912;28;20547;-90
2022/06/18 00:54:14;;;;;;;4.75;2.80;;;;;;;20.96;62.98;101628.84;5032419;28;20362;-91
2022/06/18 01:00:14;;;;;;;5.75;3.03;;;;;;;20.70;63.11;101613.06;4991326;28;20033;-90
2022/06/18 01:03:03;;;;;;;4.68;2.85;;;;;;;20.70;65.21;101626.69;5014230;28;20037;-91
2022/06/18 01:05:53;;;;;;;5.60;3.03;;;;;;;20.50;63.79;101597.19;5031699;28;20461;-90
2022/06/18 01:08:37;;;;;;;4.87;3.23;;;;;;;20.51;64.40;101602.34;5012776;28;20640;-91
2022/06/18 01:11:47;;;;;;;3.97;3.08;;;;;;;20.65;63.91;101621.34;5031067;28;20609;-90
2022/06/18 01:14:39;;;;;;;3.25;2.88;;;;;;;20.62;65.46;101619.25;5026130;28;20033;-91
2022/06/18 01:17:22;;;;;;;6.90;2.88;;;;;;;20.34;64.15;101583.94;5032231;28;20034;-90
2022/06/18 01:20:04;;;;;;;9.88;3.00;;;;;;;20.40;65.52;101595.50;5031278;28;20538;-91
2022/06/18 01:22:47;;;;;;;4.13;2.90;;;;;;;20.47;66.26;101608.69;5031269;28;20053;-91
2022/06/18 01:25:13;;;;;;;4.15;3.08;;;;;;;20.40;66.68;101618.09;5032356;28;20109;-90
2022/06/18 01:27:47;;;;;;;5.15;3.20;;;;;;;20.38;66.72;101611.34;5035231;28;20075;-90
2022/06/18 01:30:17;;;;;;;5.17;3.10;;;;;;;20.35;66.83;101607.31;5044764;28;20022;-91
2022/06/18 01:32:45;;;;;;;5.30;2.90;;;;;;;20.31;66.71;101614.47;5039294;28;20346;-91
2022/06/18 01:35:12;;;;;;;6.72;3.45;;;;;;;20.27;67.84;101603.41;5035607;28;20025;-90
2022/06/18 01:37:38;;;;;;;5.10;3.20;;;;;;;20.23;67.70;101607.03;5035065;28;20048;-91
2022/06/18 01:40:19;;;;;;;8.00;3.50;;;;;;;20.09;66.95;101588.00;5058396;22;20048;-90
2022/06/18 01:43:11;;;;;;;5.00;3.45;;;;;;;20.13;67.16;101595.25;5054940;28;20033;-91
2022/06/18 01:51:47;;;;;;;12.10;3.42;;;;;;;20.12;67.38;101612.69;5056163;28;20036;-91
2022/06/18 01:54:53;;;;;;;3.87;2.87;;;;;;;19.90;67.57;101582.69;5055489;28;20105;-91
2022/06/18 01:57:49;;;;;;;6.60;3.60;;;;;;;20.05;67.36;101614.19;4954193;29;20291;-90
2022/06/18 02:03:28;;;;;;;9.18;3.40;;;;;;;19.78;67.30;101564.94;5055033;28;20032;-92
2022/06/18 02:06:12;;;;;;;4.85;3.50;;;;;;;19.89;68.62;101587.31;5055182;28;20025;-91
2022/06/18 02:08:37;;;;;;;5.72;3.25;;;;;;;19.87;68.70;101577.84;5054443;28;20534;-91
2022/06/18 02:11:06;;;;;;;5.90;3.30;;;;;;;19.88;69.40;101590.34;5054550;28;20104;-91
2022/06/18 02:13:40;;;;;;;4.65;3.13;;;;;;;19.85;69.08;101593.63;5054821;28;20025;-91
2022/06/18 02:16:10;;;;;;;5.95;3.58;;;;;;;19.79;69.64;101595.66;5055048;28;20039;-91
2022/06/18 02:18:36;;;;;;;4.53;3.30;;;;;;;19.80;69.21;101595.34;5056230;28;20542;-91
2022/06/18 02:21:07;;;;;;;7.07;3.60;;;;;;;19.70;69.73;101592.84;5063701;28;20025;-92
2022/06/18 02:23:33;;;;;;;4.88;3.53;;;;;;;19.71;69.78;101599.06;5059038;28;20039;-91
2022/06/18 02:26:01;;;;;;;6.10;3.65;;;;;;;19.67;70.27;101596.16;5054530;28;20024;-91
2022/06/18 02:28:39;;;;;;;11.90;3.72;;;;;;;19.61;69.47;101591.91;5054150;28;20060;-91
2022/06/18 02:31:16;;;;;;;5.88;3.55;;;;;;;19.60;69.48;101598.44;5037213;28;20052;-91
2022/06/18 02:33:58;;;;;;;3.93;3.43;;;;;;;19.53;69.53;101590.69;5055431;28;20084;-92
2022/06/18 02:36:28;;;;;;;7.03;3.97;;;;;;;19.50;70.77;101591.28;5053525;28;20299;-91
2022/06/18 02:42:04;;;;;;;7.07;3.60;;;;;;;19.31;70.56;101572.34;5066611;28;20056;-93
2022/06/18 02:45:04;;;;;;;4.20;3.67;;;;;;;19.26;70.82;101556.13;5077530;28;20040;-91
2022/06/18 02:48:04;;;;;;;5.97;4.00;;;;;;;19.40;70.27;101589.56;5073849;28;20472;-91
2022/06/18 02:51:15;;;;;;;;;;;;;;;;;;;;;
2022/06/18 02:54:14;;;;;;;6.18;4.60;;;;;;;19.33;70.41;101597.31;5021277;28;20104;-92
2022/06/18 02:57:19;;;;;;;8.10;4.18;;;;;;;19.17;71.23;101573.09;5044952;28;20033;-92
2022/06/18 03:02:25;;;;;;;7.10;3.87;;;;;;;19.21;71.79;101576.84;5063518;28;20405;-92
2022/06/18 03:05:27;;;;;;;6.40;4.10;;;;;;;19.11;70.97;101560.75;5062545;28;20279;-91
2022/06/18 03:08:02;;;;;;;13.32;4.15;;;;;;;19.31;72.07;101594.09;5045195;28;20032;-92
2022/06/18 03:13:51;;;;;;;7.47;4.03;;;;;;;19.24;71.51;101580.91;4955527;29;20414;-91
2022/06/18 03:16:19;;;;;;;9.32;4.60;;;;;;;19.22;71.57;101585.81;4981895;28;20096;-93
2022/06/18 03:19:26;;;;;;;8.68;4.43;;;;;;;19.09;70.76;101571.09;5061131;28;20017;-92
2022/06/18 03:22:20;;;;;;;6.93;4.40;;;;;;;19.15;71.10;101590.81;5036009;28;20043;-91
2022/06/18 03:25:04;;;;;;;6.72;4.40;;;;;;;19.08;71.06;101588.50;5062582;28;20024;-89
2022/06/18 03:30:18;;;;;;;8.07;4.40;;;;;;;19.11;71.28;101590.63;5117025;22;20709;-90
2022/06/18 03:32:56;;;;;;;7.20;4.63;;;;;;;19.08;71.79;101584.97;5066069;28;20032;-90
2022/06/18 03:36:11;;;;;;;9.07;4.32;;;;;;;19.22;71.18;101621.94;5066708;28;20044;-91
2022/06/18 03:38:39;;;;;;;9.32;4.63;;;;;;;19.10;72.90;101599.88;5068271;28;20033;-91
2022/06/18 03:44:25;;;;;;;8.27;5.25;;;;;;;19.06;72.71;101582.53;5072794;28;20017;-91
2022/06/18 03:47:12;;;;;;;9.23;4.95;;;;;;;19.08;73.03;101587.69;5054128;28;20053;-91
2022/06/18 03:49:37;;;;;;;14.30;5.50;;;;;;;19.28;72.63;101598.19;5417266;22;20061;-92
2022/06/18 03:52:05;;;;;;;10.10;4.77;;;;;;;19.34;72.40;101605.16;5036845;28;20020;-91
2022/06/18 03:54:30;;;;;;;8.13;5.03;;;;;;;19.42;72.15;101605.59;5055537;28;20032;-91
2022/06/18 03:56:56;;;;;;;8.27;4.90;;;;;;;19.37;72.38;101593.69;5055782;28;20029;-91
2022/06/18 03:59:46;;;;;;;8.43;5.27;;;;;;;19.45;71.53;101608.50;5068933;22;20099;-91
2022/06/18 04:02:14;;;;;;;8.82;5.20;;;;;;;19.31;72.27;101577.78;5054514;28;20108;-92
2022/06/18 04:07:41;;;;;;;10.38;4.93;;;;;;;19.39;72.47;101568.94;5054126;28;20400;-91
2022/06/18 04:13:50;;;;;;;9.50;5.18;;;;;;;19.47;71.06;101551.94;5067978;28;20072;-91
2022/06/18 04:16:57;;;;;;;6.30;4.73;;;;;;;19.78;70.76;101591.31;5068113;28;20033;-90
2022/06/18 04:19:22;;;;;;;15.83;4.97;;;;;;;19.81;71.40;101580.66;5182965;22;20306;-90
2022/06/18 04:21:48;;;;;;;11.60;5.15;;;;;;;19.92;70.85;101584.00;5070129;28;20080;-90
2022/06/18 04:24:13;;;;;;;6.63;4.83;;;;;;;19.96;71.80;101578.75;5052305;28;20026;-90
2022/06/18 04:26:38;;;;;;;7.77;4.87;;;;;;;20.06;70.56;101572.28;5070908;28;20025;-90
2022/06/18 04:29:05;;;;;;;10.57;5.57;;;;;;;20.19;70.09;101582.34;5066741;28;20476;-91
2022/06/18 04:31:30;;;;;;;9.60;4.75;;;;;;;20.23;69.55;101575.19;5067262;28;20097;-91
2022/06/18 04:34:04;;;;;;;6.83;4.77;;;;;;;20.41;69.17;101591.69;5067210;28;20117;-89
2022/06/18 04:36:35;;;;;;;9.55;5.32;;;;;;;20.46;68.73;101585.31;5071366;28;20029;-91
2022/06/18 04:39:02;;;;;;;9.60;5.00;;;;;;;20.60;68.77;101590.72;5061585;28;20070;-91
2022/06/18 04:41:28;;;;;;;9.63;5.43;;;;;;;20.63;69.31;101593.66;5053931;28;20060;-90
2022/06/18 04:43:53;;;;;;;12.50;5.47;;;;;;;20.71;68.84;101584.72;5040875;28;20025;-91
2022/06/18 04:46:19;;;;;;;8.40;5.27;;;;;;;20.79;68.72;101585.16;5057840;28;20031;-91
2022/06/18 04:48:45;;;;;;;11.00;5.53;;;;;;;21.07;67.12;101595.91;5055480;28;20029;-91
2022/06/18 04:51:10;;;;;;;6.63;5.10;;;;;;;21.33;66.41;101593.31;5058144;28;20032;-92
2022/06/18 04:53:35;;;;;;;8.82;5.00;;;;;;;21.62;66.58;101592.84;5073425;28;20067;-91
2022/06/18 04:56:05;;;;;;;12.43;4.97;;;;;;;21.94;64.44;101592.81;5070767;28;20338;-90
2022/06/18 04:58:30;;;;;;;9.27;5.10;;;;;;;22.24;63.13;101593.81;5071331;28;20044;-90
2022/06/18 05:00:58;;;;;;;8.93;5.20;;;;;;;22.41;62.29;101600.44;5068288;28;20068;-91
2022/06/18 05:03:25;;;;;;;9.10;4.85;;;;;;;22.60;61.59;101589.22;5072621;28;20029;-91
2022/06/18 05:05:51;;;;;;;10.98;5.22;;;;;;;22.82;60.63;101595.63;5076553;28;20032;-91
2022/06/18 05:08:16;;;;;;;9.73;4.93;;;;;;;23.08;60.34;101608.47;5076062;28;20025;-91
2022/06/18 05:10:42;;;;;;;11.77;5.13;;;;;;;23.24;59.80;101601.38;5074956;28;20040;-90
2022/06/18 05:13:07;;;;;;;8.75;4.80;;;;;;;23.37;58.77;101596.03;5058416;28;20472;-91
2022/06/18 05:15:34;;;;;;;8.30;5.40;;;;;;;23.60;57.87;101599.31;5057323;28;20585;-89
2022/06/18 05:21:04;;;;;;;9.95;5.25;;;;;;;23.96;57.29;101597.22;4936417;29;20040;-89
2022/06/18 05:23:48;;;;;;;7.90;5.23;;;;;;;24.26;56.07;101611.72;5046529;28;20450;-91
2022/06/18 05:33:26;;;;;;;10.40;5.30;;;;;;;25.25;53.81;101619.56;5015813;28;20094;-92
2022/06/18 05:36:19;;;;;;;9.00;4.93;;;;;;;25.40;52.71;101618.91;5056680;28;20102;-91
2022/06/18 05:38:53;;;;;;;8.93;4.72;;;;;;;25.48;52.01;101617.22;5055923;28;20028;-90
2022/06/18 05:41:48;;;;;;;9.82;4.95;;;;;;;25.76;51.83;101616.53;5045163;28;20127;-91
2022/06/18 05:44:13;;;;;;;13.98;5.10;;;;;;;26.02;50.37;101612.66;5057284;28;20082;-91
2022/06/18 05:46:39;;;;;;;9.40;4.97;;;;;;;26.42;49.53;101627.59;5056942;28;20033;-91
2022/06/18 05:49:04;;;;;;;6.77;4.93;;;;;;;26.63;49.25;101632.91;5038595;28;20037;-91
2022/06/18 05:51:29;;;;;;;9.00;4.97;;;;;;;26.83;48.79;101633.91;5056224;28;20079;-91
2022/06/18 05:53:55;;;;;;;9.52;4.90;;;;;;;27.00;47.94;101629.22;5056356;28;20036;-91
2022/06/18 05:56:20;;;;;;;12.87;4.93;;;;;;;26.87;47.83;101617.50;5056642;28;20028;-92
2022/06/18 05:58:45;;;;;;;9.00;5.30;;;;;;;26.81;48.08;101622.44;5056614;28;20186;-92
2022/06/18 07:14:35;;;;;;;15.07;6.40;;;;;;;26.99;48.70;101608.38;5453066;22;20041;-91
2022/06/18 07:17:06;;;;;;;15.80;5.50;;;;;;;26.98;49.87;101604.84;5076139;28;20048;-92
2022/06/18 07:20:38;;;;;;;14.90;5.43;;;;;;;27.16;49.03;101618.25;5063215;28;20097;-92
2022/06/18 07:23:05;;;;;;;11.63;5.33;;;;;;;27.13;49.06;101597.75;4958684;29;20287;-93
2022/06/18 07:26:16;;;;;;;14.52;6.15;;;;;;;27.29;49.16;101608.00;4975432;29;20112;-93
2022/06/18 07:28:43;;;;;;;16.17;6.68;;;;;;;27.39;48.41;101609.41;4974685;28;20094;-94
2022/06/18 07:31:14;;;;;;;13.13;6.80;;;;;;;27.62;49.08;101618.66;4976870;29;20137;-93
2022/06/18 07:34:14;;;;;;;15.15;6.50;;;;;;;27.69;48.27;101608.97;4977228;28;20019;-94
2022/06/18 07:36:40;;;;;;;17.58;6.53;;;;;;;27.53;47.07;101581.47;4976440;28;20026;-94
2022/06/18 07:39:14;;;;;;;16.93;6.70;;;;;;;27.59;46.84;101585.53;4980395;28;20053;-92
2022/06/18 07:42:11;;;;;;;19.08;6.00;;;;;;;27.68;47.13;101601.88;5055338;28;20506;-92
2022/06/18 07:45:18;;;;;;;17.15;6.68;;;;;;;27.81;47.44;101606.09;5056123;28;20024;-92
2022/06/18 07:47:45;;;;;;;13.73;5.95;;;;;;;27.85;46.52;101600.66;5053590;28;20033;-93
2022/06/18 07:50:11;;;;;;;15.27;7.05;;;;;;;27.85;45.98;101598.72;5054145;28;20113;-92
2022/06/18 07:52:36;;;;;;;16.52;5.45;;;;;;;28.13;46.20;101600.53;5053702;28;20048;-92
2022/06/18 07:55:02;;;;;;;14.30;5.77;;;;;;;28.29;45.22;101596.97;5053988;28;20033;-93
2022/06/18 08:00:18;;;;;;;13.00;5.25;;;;;;;28.63;45.10;101588.97;5577837;22;20053;-92
2022/06/18 08:02:44;;;;;;;12.98;5.57;;;;;;;28.70;45.16;101589.09;5037171;28;20571;-93
2022/06/18 08:05:12;;;;;;;14.17;5.90;;;;;;;28.83;43.83;101590.56;5063620;28;20028;-92
2022/06/18 08:07:37;;;;;;;16.40;6.17;;;;;;;28.90;44.87;101576.13;5054686;28;20279;-93
2022/06/18 08:10:10;;;;;;;13.27;5.43;;;;;;;29.07;43.86;101588.63;5055157;28;20028;-92
2022/06/18 08:12:35;;;;;;;12.23;5.63;;;;;;;29.11;43.51;101585.94;5054642;28;20459;-93
2022/06/18 08:15:01;;;;;;;13.50;5.90;;;;;;;29.13;42.78;101584.41;5057574;28;20263;-92
2022/06/18 08:17:27;;;;;;;14.45;6.22;;;;;;;29.09;43.28;101578.00;5054189;28;20025;-92
2022/06/18 08:19:53;;;;;;;11.57;5.50;;;;;;;29.30;43.61;101571.25;5053912;28;20025;-93
2022/06/18 08:22:20;;;;;;;12.50;5.03;;;;;;;29.55;43.55;101576.41;5053673;28;20289;-92
2022/06/18 08:24:46;;;;;;;11.02;5.45;;;;;;;29.66;43.52;101571.06;5036459;28;20035;-92
2022/06/18 08:27:14;;;;;;;15.37;5.37;;;;;;;29.71;42.33;101563.25;5055702;28;20093;-92
2022/06/18 08:29:39;;;;;;;13.82;5.00;;;;;;;29.69;43.07;101567.53;5060798;28;20396;-94
2022/06/18 08:32:04;;;;;;;11.23;5.13;;;;;;;29.76;42.92;101570.41;5041203;28;20112;-94
2022/06/18 08:34:30;;;;;;;10.20;5.18;;;;;;;29.76;42.74;101557.38;5057387;28;20104;-94
2022/06/18 08:36:57;;;;;;;15.13;5.50;;;;;;;29.95;42.82;101563.16;5059870;28;20056;-93
2022/06/18 08:39:23;;;;;;;15.68;5.88;;;;;;;30.00;41.34;101555.38;5049689;28;20017;-93
2022/06/18 08:42:11;;;;;;;11.60;5.57;;;;;;;30.19;41.78;101565.50;5061586;28;20331;-92
2022/06/18 08:45:00;;;;;;;22.52;6.13;;;;;;;30.20;41.98;101558.78;5057792;28;20503;-94
2022/06/18 08:47:50;;;;;;;15.07;6.20;;;;;;;29.83;42.51;101569.72;5057756;28;20479;-93
2022/06/18 08:50:51;;;;;;;17.27;5.93;;;;;;;29.90;44.00;101569.81;5056647;28;20712;-94
2022/06/18 08:53:40;;;;;;;15.50;6.30;;;;;;;30.22;42.30;101564.72;5061618;28;20029;-93
2022/06/18 08:56:18;;;;;;;15.30;5.82;;;;;;;30.31;41.88;101571.94;5057813;28;20040;-93
2022/06/18 09:05:45;;;;;;;12.30;5.38;;;;;;;30.85;40.63;101558.72;5058218;28;20556;-94
2022/06/18 09:08:37;;;;;;;11.98;6.07;;;;;;;30.55;40.47;101570.66;5056953;28;20121;-95
2022/06/18 09:11:28;;;;;;;12.20;6.22;;;;;;;30.57;41.66;101568.31;5057069;28;20041;-95
2022/06/18 09:17:37;;;;;;;15.80;6.13;;;;;;;30.64;42.20;101581.41;5058867;28;20067;-94
2022/06/18 09:20:15;;;;;;;18.27;6.95;;;;;;;30.40;42.09;101568.88;5056463;28;20025;-94
2022/06/18 09:26:48;;;;;;;13.20;7.07;;;;;;;30.21;42.57;101567.88;4954917;28;20051;-93
2022/06/18 09:50:47;;;;;;;15.68;6.45;;;;;;;31.16;39.46;101553.88;5284068;22;20061;-95
2022/06/18 09:53:37;;;;;;;17.90;6.60;;;;;;;31.31;39.72;101540.13;5056738;28;20025;-95
2022/06/18 09:59:42;;;;;;;13.23;6.07;;;;;;;31.89;40.33;101552.38;4975074;28;20847;-94
2022/06/18 10:03:05;;;;;;;14.57;5.80;;;;;;;32.20;38.99;101532.72;4975424;28;20035;-94
2022/06/18 10:08:38;;;;;;;18.88;7.63;;;;;;;32.70;37.42;101546.72;4957417;28;20062;-91
2022/06/18 10:11:08;;;;;;;13.82;6.70;;;;;;;32.61;37.58;101549.09;5036133;28;20191;-94
2022/06/18 10:13:46;;;;;;;14.18;6.03;;;;;;;33.02;37.72;101540.44;5037518;28;20025;-94
2022/06/18 10:16:51;;;;;;;13.75;6.32;;;;;;;33.31;37.37;101537.63;5002880;28;20068;-94
2022/06/18 10:19:45;;;;;;;25.13;6.68;;;;;;;33.23;37.45;101547.94;5035950;28;20036;-95
2022/06/18 10:22:28;;;;;;;15.15;6.85;;;;;;;32.92;36.59;101546.75;5036161;28;20431;-94
2022/06/18 10:25:29;;;;;;;21.67;7.10;;;;;;;32.83;37.51;101543.59;5037164;28;20591;-94
2022/06/18 10:28:17;;;;;;;15.97;6.60;;;;;;;32.93;37.52;101531.69;5035291;28;20280;-94
2022/06/18 10:30:51;;;;;;;18.30;6.63;;;;;;;33.02;37.92;101537.66;5036178;28;20037;-95
2022/06/18 10:33:28;;;;;;;18.98;7.07;;;;;;;33.10;37.49;101534.88;5037376;28;20125;-94
2022/06/18 10:36:14;;;;;;;17.92;6.82;;;;;;;32.90;38.43;101529.72;5036649;28;20021;-95
2022/06/18 10:39:01;;;;;;;17.30;7.05;;;;;;;33.23;37.88;101527.72;5037889;28;20025;-94
2022/06/18 10:41:38;;;;;;;14.95;6.82;;;;;;;32.91;38.01;101522.97;5035243;28;20029;-95
2022/06/18 10:44:09;;;;;;;16.42;7.50;;;;;;;32.84;37.00;101523.00;5042800;28;20040;-95
2022/06/18 10:46:34;;;;;;;12.63;6.78;;;;;;;32.74;36.84;101524.53;5037056;28;20021;-94
2022/06/18 10:49:03;;;;;;;22.13;7.03;;;;;;;32.90;37.29;101513.88;5038969;28;20022;-94
2022/06/18 10:51:40;;;;;;;21.20;7.43;;;;;;;33.13;37.88;101509.09;5040059;28;20026;-96
2022/06/18 10:54:06;;;;;;;17.27;6.63;;;;;;;33.30;36.79;101508.28;5048185;28;20021;-95
2022/06/18 10:56:43;;;;;;;14.53;6.60;;;;;;;33.55;37.14;101510.22;5047520;28;20032;-95
2022/06/18 10:59:09;;;;;;;15.25;7.00;;;;;;;33.44;36.73;101509.44;5043275;28;20112;-96
2022/06/18 11:01:46;;;;;;;19.67;7.33;;;;;;;33.20;37.16;101504.31;5042699;28;20037;-93
2022/06/18 11:04:25;;;;;;;20.35;7.32;;;;;;;33.54;36.70;101505.88;5039390;28;20060;-94
2022/06/18 11:06:57;;;;;;;16.55;6.53;;;;;;;33.71;35.53;101492.31;5038151;28;20057;-94
2022/06/18 11:09:27;;;;;;;23.52;6.70;;;;;;;34.04;34.72;101495.78;5039691;28;20098;-94
2022/06/18 11:12:06;;;;;;;20.63;7.25;;;;;;;34.23;35.55;101491.72;5048540;28;20382;-94
2022/06/18 11:14:42;;;;;;;22.00;6.85;;;;;;;34.17;35.90;101496.88;5038308;28;20030;-94
2022/06/18 11:17:24;;;;;;;19.20;6.97;;;;;;;33.81;36.26;101486.72;5037768;28;20029;-93
2022/06/18 11:19:49;;;;;;;20.60;7.40;;;;;;;33.73;34.85;101471.25;5039782;28;20025;-95
2022/06/18 11:22:25;;;;;;;15.47;7.73;;;;;;;33.74;35.81;101477.63;5036770;28;20280;-95
2022/06/18 11:25:00;;;;;;;16.43;7.33;;;;;;;33.90;35.75;101464.09;5038821;28;20017;-95
2022/06/18 11:27:37;;;;;;;18.50;6.60;;;;;;;33.77;36.32;101471.28;5051436;28;20260;-95
2022/06/18 11:30:21;;;;;;;16.58;6.65;;;;;;;33.37;36.92;101465.84;5028827;28;20022;-95
2022/06/18 11:32:50;;;;;;;20.30;6.95;;;;;;;33.73;36.20;101460.16;5044597;28;20027;-94
2022/06/18 11:35:28;;;;;;;18.88;6.43;;;;;;;34.01;37.17;101461.25;5040365;28;20021;-96
2022/06/18 11:38:05;;;;;;;17.55;7.15;;;;;;;34.13;35.98;101454.44;5036890;28;20029;-95
2022/06/18 11:40:33;;;;;;;16.33;6.70;;;;;;;34.03;35.65;101455.28;5034894;28;20037;-94
2022/06/18 11:43:27;;;;;;;18.98;7.30;;;;;;;33.95;35.31;101449.78;5035488;28;20090;-96
2022/06/18 11:46:05;;;;;;;20.60;7.00;;;;;;;34.52;35.41;101444.25;5025024;28;20033;-95
2022/06/18 11:49:07;;;;;;;17.90;7.05;;;;;;;34.66;34.93;101435.75;5018180;28;20113;-95
2022/06/18 11:51:44;;;;;;;18.03;6.83;;;;;;;34.92;34.40;101430.75;5034891;28;20105;-95
2022/06/18 11:54:15;;;;;;;20.50;7.57;;;;;;;34.98;34.61;101425.56;5034750;28;20894;-95
2022/06/18 11:57:17;;;;;;;20.38;6.78;;;;;;;34.96;33.89;101431.56;5034638;28;20037;-93
2022/06/18 11:59:53;;;;;;;19.42;7.03;;;;;;;34.81;35.36;101433.66;5035230;28;20469;-93
2022/06/18 12:02:25;;;;;;;18.92;7.10;;;;;;;35.30;33.56;101424.41;5036442;28;20476;-94
2022/06/18 12:04:58;;;;;;;16.30;6.75;;;;;;;35.12;33.87;101425.41;5035720;28;20515;-96
2022/06/18 12:07:37;;;;;;;16.63;6.75;;;;;;;35.47;34.11;101434.56;5039640;28;20022;-93
2022/06/18 12:10:05;;;;;;;21.92;6.72;;;;;;;35.66;32.60;101426.78;5050998;28;20031;-94
2022/06/18 12:13:07;;;;;;;16.05;7.13;;;;;;;35.90;33.17;101430.41;5041058;28;20029;-94
2022/06/18 12:15:43;;;;;;;22.13;7.05;;;;;;;36.19;31.58;101426.44;5036700;28;20025;-93
2022/06/18 12:24:11;;;;;;;11.85;6.03;;;;;;;37.06;31.00;101427.81;5238722;22;20056;-94
2022/06/18 12:27:06;;;;;;;16.38;6.63;;;;;;;37.03;31.22;101426.63;5057676;28;20033;-95
2022/06/18 12:29:35;;;;;;;14.73;6.45;;;;;;;36.53;31.51;101414.34;5042874;28;20060;-96
2022/06/18 12:32:44;;;;;;;15.80;6.80;;;;;;;36.66;31.97;101415.34;5070684;28;20206;-95
2022/06/18 12:35:42;;;;;;;17.83;6.55;;;;;;;36.50;32.03;101404.84;5075126;28;20032;-93
2022/06/18 12:57:20;;;;;;;17.75;6.63;;;;;;;36.74;32.46;101373.31;6097876;22;21579;-95
2022/06/18 13:00:39;;;;;;;17.33;7.07;;;;;;;36.74;31.47;101376.09;5017375;28;20044;-95
2022/06/18 13:04:02;;;;;;;18.92;6.22;;;;;;;36.84;31.90;101372.34;5035229;28;20108;-95
2022/06/18 13:07:37;;;;;;;;;;;;;;;;;;;;;
2022/06/18 13:10:47;;;;;;;17.75;6.43;;;;;;;37.10;31.03;101364.25;4975667;28;20344;-96
2022/06/18 13:13:50;;;;;;;19.17;6.75;;;;;;;37.13;30.69;101360.63;5040304;28;20025;-95
2022/06/18 13:16:38;;;;;;;20.80;6.70;;;;;;;36.99;31.39;101350.53;5039618;28;20035;-95
2022/06/18 13:20:06;;;;;;;20.17;6.93;;;;;;;37.12;31.08;101356.25;5036745;28;20284;-95
2022/06/18 13:22:32;;;;;;;20.90;7.18;;;;;;;36.86;30.42;101328.03;5036747;28;20069;-95
2022/06/18 13:47:12;;;;;;;16.02;6.25;;;;;;;36.83;32.12;101320.53;4783546;30;20547;-96
2022/06/18 13:50:13;;;;;;;17.42;6.10;;;;;;;36.78;30.74;101293.09;4784361;30;20051;-95
2022/06/18 14:00:19;;;;;;;22.52;6.57;;;;;;;37.04;30.59;101307.38;4970232;28;20045;-95
2022/06/18 14:03:32;;;;;;;;;;;;;;;;;;;;;
2022/06/18 14:11:09;;;;;;;14.07;7.15;;;;;;;36.81;29.70;101289.44;5371581;22;20065;-95
2022/06/18 14:13:53;;;;;;;22.38;6.35;;;;;;;36.65;30.25;101277.00;5060973;28;20085;-96
2022/06/18 14:23:37;;;;;;;18.48;6.63;;;;;;;36.40;32.21;101291.41;5064549;28;20060;-96
2022/06/18 14:26:45;;;;;;;21.92;7.10;;;;;;;36.21;32.41;101268.66;5065388;28;20037;-96
2022/06/18 14:29:12;;;;;;;16.20;6.43;;;;;;;36.56;32.10;101282.34;4967045;29;20053;-96
2022/06/18 14:32:13;;;;;;;18.00;6.50;;;;;;;36.41;32.47;101278.25;4996792;28;20093;-96
2022/06/18 14:35:06;;;;;;;16.20;6.47;;;;;;;36.57;32.27;101281.16;5073539;28;20279;-96
2022/06/18 14:45:11;;;;;;;18.77;7.45;;;;;;;36.10;32.41;101261.69;4960222;29;20031;-94
2022/06/18 14:48:17;;;;;;;17.83;6.65;;;;;;;35.64;33.67;101284.28;4866090;29;20037;-95
2022/06/18 14:54:40;;;;;;;21.65;7.15;;;;;;;34.54;35.71;101263.81;4847423;29;20133;-94
2022/06/18 14:57:43;;;;;;;20.67;7.10;;;;;;;34.70;35.68;101266.81;4835788;29;20554;-93
2022/06/18 15:00:56;;;;;;;16.17;6.45;;;;;;;35.20;35.00;101272.97;4835636;29;20045;-93
2022/06/18 15:06:42;;;;;;;19.67;7.10;;;;;;;34.81;35.05;101238.84;4833844;29;20297;-94
2022/06/18 15:10:12;;;;;;;;;;;;;;;;;;;;;
2022/06/18 15:13:44;;;;;;;15.80;7.07;;;;;;;34.27;35.05;101231.88;4887061;29;20186;-96
2022/06/18 15:16:26;;;;;;;20.30;7.32;;;;;;;34.05;36.32;101231.31;4867167;29;20057;-95
2022/06/18 15:19:28;;;;;;;14.93;6.35;;;;;;;34.42;35.28;101237.31;4859109;29;20052;-95
2022/06/18 15:32:48;;;;;;;15.95;7.03;;;;;;;34.91;34.50;101214.88;4995426;28;20042;-95
2022/06/18 15:35:16;;;;;;;16.67;6.13;;;;;;;35.17;34.61;101234.81;4980845;28;20103;-96
2022/06/18 15:37:51;;;;;;;19.83;6.80;;;;;;;35.02;34.51;101231.47;5054580;28;20343;-96
2022/06/18 15:40:42;;;;;;;13.25;6.28;;;;;;;35.03;34.75;101233.03;5065082;28;20045;-96
2022/06/18 15:43:22;;;;;;;19.08;6.53;;;;;;;35.10;34.88;101224.56;5063217;28;20052;-95
2022/06/18 15:45:55;;;;;;;15.38;6.22;;;;;;;35.02;34.75;101229.44;5065422;28;20016;-95
2022/06/18 15:49:03;;;;;;;12.15;6.22;;;;;;;35.48;34.65;101210.50;5063453;28;20031;-96
2022/06/18 15:51:44;;;;;;;12.45;5.68;;;;;;;35.62;33.71;101208.69;5061722;28;20033;-95
2022/06/18 15:54:37;;;;;;;15.48;6.30;;;;;;;35.57;33.67;101209.19;5067644;28;20511;-95
2022/06/18 15:57:23;;;;;;;16.58;6.47;;;;;;;35.24;33.55;101200.53;5069640;28;20028;-96
2022/06/18 15:59:55;;;;;;;18.30;6.93;;;;;;;34.96;35.04;101192.19;5075166;28;20071;-94
2022/06/18 16:02:23;;;;;;;14.50;6.47;;;;;;;34.85;34.51;101183.94;5076777;28;20017;-95
2022/06/18 16:04:49;;;;;;;16.20;5.77;;;;;;;35.27;33.75;101177.41;5060056;28;20314;-96
2022/06/18 16:07:16;;;;;;;20.95;6.57;;;;;;;35.19;33.84;101179.50;5075674;28;20029;-95
2022/06/18 16:10:00;;;;;;;20.40;6.78;;;;;;;35.05;34.43;101169.38;5068125;28;20021;-95
2022/06/18 16:12:38;;;;;;;20.63;7.45;;;;;;;34.58;35.26;101168.00;5061574;28;20036;-95
2022/06/18 16:15:29;;;;;;;21.83;6.78;;;;;;;34.64;35.26;101154.41;5059987;28;20104;-94
2022/06/18 16:20:33;;;;;;;19.70;5.90;;;;;;;34.91;34.64;101136.13;5356478;22;20517;-95
2022/06/18 16:43:02;;;;;;;18.48;4.60;;;;;;;34.03;37.65;101153.13;4959218;29;20098;-95
2022/06/18 16:49:01;;;;;;;15.02;4.78;;;;;;;33.83;37.71;101141.75;4956311;29;20168;-95
2022/06/18 16:51:49;;;;;;;11.10;4.53;;;;;;;33.68;38.50;101141.91;5017487;28;20132;-95
2022/06/18 17:02:17;;;;;;;11.70;4.35;;;;;;;33.04;39.64;101110.66;4978044;28;20100;-96
2022/06/18 17:05:16;;;;;;;8.52;3.97;;;;;;;32.67;40.65;101109.28;4903054;29;20032;-95
2022/06/18 17:13:48;;;;;;;7.70;3.95;;;;;;;31.65;42.83;101096.88;4885057;29;20507;-94